Palau, PW

6:44 AM +09 on April 24, 2017 (GMT +0900)
Guam International | | Change Station

Elev 295 ft 13.48 °N, 144.80 °E | Updated 50 minutes ago

Mostly Cloudy
Mostly Cloudy
80 °F
Feels Like 86 °F
N
7
Wind Variable Wind from SE

Today
High -- | Low -- °F
--% Chance of Precip.
Yesterday
High -- | Low -- °F
Precip. -- in
Pressure 29.88 in
Visibility 10.0 miles
Clouds Few 1900 ft
Scattered Clouds 5000 ft
Heat Index 86 °F
Dew Point 77 °F
Humidity 90%
Rainfall 0.32 in
Snow Depth Not available.
5:50 AM 6:10 PM
Waning Crescent, 9% visible
METAR PGUM 232054Z 13006KT 10SM FEW019 SCT050 27/25 A2990 RMK AO2 RAE49 SLP116 P0000 60012 T02670250 53009 $
Pressure 29.88 in
Visibility 10.0 miles
Clouds Few 1900 ft
Scattered Clouds 5000 ft
Heat Index 86 °F
Dew Point 77 °F
Humidity 90%
Rainfall 0.32 in
Snow Depth Not available.
5:50 AM 6:10 PM
Waning Crescent, 9% visible
METAR PGUM 232054Z 13006KT 10SM FEW019 SCT050 27/25 A2990 RMK AO2 RAE49 SLP116 P0000 60012 T02670250 53009 $

Get Severe Weather Alerts

Thanks for signing up!

Be on the lookout for a verification email in your inbox.

You'll start receiving the daily forecast at 8 AM.

×

10-Day Weather Forecast

Almanac

Astronomy

Apr. 24, 2017 Rise Set
Actual Time
Civil Twilight
Nautical Twilight
Astronomical Twilight
Moon
Length of Visible Light
Length of Day
Tomorrow will be .
, % of the Moon is Illuminated

Today's Extremes

State Highs State Lows

Community

WunderPhotos

WunderBlog® & News

Nearby

Air Quality

  Air Quality AQ Index Pollutant
Not available.

Snow Depth

Station Depth Elevation

Earthquake Activity

City Distance Mag. Time & Date
Minimum magnitude displayed is 2.5.

Coastal Water Temperatures

Place Temperature

Stations

Nearby Weather Stations

Station Location Temp. Windchill Dew Point Humidity Wind Precip. Elev Updated Type
                   

Watches & Warnings

There are currently no watches in effect.